• Join FlightAware (Why Join?)
  • Login
  • US Flag 
02:49PM EDT


 

Airport Tracker/Info


-or-


 

Live Flight TrackerFlight Track Log ✈ N143DE ✈ 22-Oct-2013 ✈ C29 - KMKC

Flight Track Log - Related Links

Times and Time Zones

All times are in EDT time to prevent confusion due to time zone crossing. See the N143DE flight status page for this flight to view local times or setup timezone preferences in your user account.

Time Position Orientation Groundspeed Altitude Reporting Facility
EDT Latitude Longitude Course Direction KTS MPH feet Rate Location/Type
01:16PM 43.1275 -89.6367 279° West 178 205 26,000  Level Chicago Center
01:17PM 43.1358 -89.7106 279° West 197 227 26,000 -10,320 Level Chicago Center
01:18PM 43.1256 -89.7811 259° West 190 219 4,700 -9,180 Descending Chicago Center
01:19PM 43.1019 -89.8453 243° Southwest 186 214 7,100 2,220 Climbing Chicago Center
01:20PM 43.0781 -89.9200 246° West 181 208 9,300 2,100 Climbing Chicago Center
01:21PM 43.0456 -89.9736 230° Southwest 181 208 11,500 1,860 Climbing Chicago Center
01:22PM 43.0006 -90.0150 214° Southwest 192 221 13,200 1,200 Climbing Chicago Center
01:23PM 42.9597 -90.0644 222° Southwest 192 221 14,100 420 Climbing Chicago Center
01:24PM 42.9103 -90.1275 223° Southwest 231 266 14,100  Level Chicago Center
01:25PM 42.8581 -90.1883 221° Southwest 244 281 14,100 840 Level Chicago Center
01:26PM 42.7992 -90.2628 223° Southwest 243 280 15,900 1,620 Climbing Chicago Center
01:27PM 42.7606 -90.3122 223° Southwest 201 231 17,500 1,320 Climbing Chicago Center
01:28PM 42.7206 -90.3578 220° Southwest 190 219 18,700 1,140 Climbing Chicago Center
01:29PM 42.6814 -90.4072 223° Southwest 192 221 19,900 1,080 Climbing Chicago Center
01:30PM 42.6417 -90.4525 220° Southwest 189 217 21,000 1,020 Climbing Chicago Center
01:31PM 42.5950 -90.5086 222° Southwest 190 219 22,100 960 Climbing Chicago Center
01:32PM 42.5542 -90.5583 222° Southwest 198 228 23,000 840 Climbing Chicago Center
01:34PM 42.5147 -90.6075 223° Southwest 198 228 23,900 780 Climbing Chicago Center
01:35PM 42.4753 -90.6556 222° Southwest 194 223 24,700 720 Climbing Chicago Center
01:36PM 42.4350 -90.7022 221° Southwest 192 221 25,500 600 Climbing Chicago Center
01:37PM 42.3958 -90.7483 221° Southwest 189 217 26,000 240 Climbing Chicago Center
01:38PM 42.3456 -90.8086 222° Southwest 202 232 26,000  Level Chicago Center
01:39PM 42.3000 -90.8642 222° Southwest 219 252 26,000  Level Chicago Center
01:40PM 42.2542 -90.9197 222° Southwest 224 258 26,000  Level Chicago Center
01:41PM 42.2058 -90.9764 221° Southwest 230 265 26,000  Level Chicago Center
01:42PM 42.1567 -91.0372 223° Southwest 237 273 26,000  Level Chicago Center
01:43PM 42.1083 -91.0950 222° Southwest 234 269 26,000  Level Chicago Center
01:44PM 42.0506 -91.1622 221° Southwest 231 266 26,000  Level Chicago Center
01:45PM 42.0017 -91.2200 221° Southwest 236 272 26,000  Level Chicago Center
01:46PM 41.9536 -91.2761 221° Southwest 232 267 26,000  Level Chicago Center
01:47PM 41.9053 -91.3325 221° Southwest 233 268 26,000  Level Chicago Center
01:48PM 41.8564 -91.3903 221° Southwest 235 270 26,000  Level Chicago Center
01:49PM 41.7972 -91.4594 221° Southwest 237 273 26,000  Level Chicago Center
01:50PM 41.7489 -91.5147 220° Southwest 232 267 26,000  Level Chicago Center
01:51PM 41.6992 -91.5731 221° Southwest 237 273 26,000  Level Chicago Center
01:52PM 41.6503 -91.6283 220° Southwest 233 268 26,000  Level Chicago Center
01:53PM 41.6008 -91.6858 221° Southwest 236 272 26,000  Level Chicago Center
01:54PM 41.5522 -91.7422 221° Southwest 233 268 26,000  Level Chicago Center
01:55PM 41.4939 -91.8114 222° Southwest 234 269 26,000  Level Chicago Center
01:56PM 41.4450 -91.8706 222° Southwest 237 273 26,000  Level Chicago Center
01:57PM 41.3964 -91.9267 220° Southwest 235 270 26,000  Level Chicago Center
01:58PM 41.3819 -91.9412 220° Southwest  Level FlightAware Approximate
01:58PM 41.3464 -91.9822 220° Southwest 234 269 26,000  Level Chicago Center
01:59PM 41.2978 -92.0356 220° Southwest 228 262 26,000  Level Chicago Center
02:00PM 41.2475 -92.0925 220° Southwest 236 272 26,000  Level Chicago Center
02:01PM 41.1922 -92.1531 220° Southwest 235 270 26,000  Level Chicago Center
02:02PM 41.1431 -92.2114 222° Southwest 238 274 26,000  Level Chicago Center
02:03PM 41.0931 -92.2672 220° Southwest 238 274 26,000  Level Chicago Center
02:04PM 41.0331 -92.3339 220° Southwest 237 273 26,000  Level Chicago Center
02:05PM 41.0414 -92.3191 220° Southwest  Level FlightAware Approximate
02:05PM 40.9831 -92.3906 221° Southwest 237 273 26,000  Level Chicago Center
02:07PM 40.9325 -92.4481 221° Southwest 240 276 26,000  Level Chicago Center
02:08PM 40.8819 -92.5036 220° Southwest 239 275 26,000  Level Chicago Center
02:09PM 40.8319 -92.5617 221° Southwest 241 277 26,000  Level Chicago Center
02:10PM 40.7708 -92.6278 219° Southwest 238 274 26,000  Level Chicago Center
02:11PM 40.7206 -92.6847 221° Southwest 240 276 26,000  Level Chicago Center
02:12PM 40.6700 -92.7408 220° Southwest 240 276 26,000  Level Chicago Center
02:13PM 40.6183 -92.7981 220° Southwest 244 281 26,000  Level Chicago Center
02:13PM 40.5906 -92.8308 224° Southwest 242 278 26,000  Level Kansas City Center
02:14PM 40.5403 -92.8872 220° Southwest 245 282 26,000  Level Kansas City Center
02:15PM 40.5278 -92.8939 219° Southwest  Level FlightAware Approximate
02:15PM 40.4831 -92.9508 220° Southwest 242 278 26,000  Level Kansas City Center
02:16PM 40.4331 -93.0053 220° Southwest 241 277 26,000  Level Kansas City Center
02:17PM 40.3831 -93.0594 220° Southwest 244 281 26,000  Level Kansas City Center
02:18PM 40.3208 -93.1275 220° Southwest 245 282 26,000  Level Kansas City Center
02:19PM 40.2692 -93.1844 220° Southwest 246 283 26,000  Level Kansas City Center
02:20PM 40.2175 -93.2411 220° Southwest 245 282 26,000  Level Kansas City Center
02:21PM 40.1650 -93.2975 219° Southwest 246 283 26,000  Level Kansas City Center
02:22PM 40.1855 -93.2639 224° Southwest  Level FlightAware Approximate
02:22PM 40.1128 -93.3539 220° Southwest 245 282 26,000  Level Kansas City Center
02:23PM 40.0522 -93.4219 221° Southwest 242 278 25,900 -960 Descending Kansas City Center
02:25PM 39.9964 -93.4817 219° Southwest 259 298 24,100 -1,980 Descending Kansas City Center
02:26PM 39.9369 -93.5450 219° Southwest 275 316 21,900 -2,280 Descending Kansas City Center
02:27PM 39.8800 -93.6081 220° Southwest 272 313 19,500 -2,760 Descending Kansas City Center
02:28PM 39.8122 -93.6811 220° Southwest 267 307 16,300 -3,000 Descending Kansas City Center
02:29PM 39.7556 -93.7425 220° Southwest 265 305 13,400 -2,760 Descending Kansas City Center
02:30PM 39.7067 -93.7967 220° Southwest 245 282 10,700 -2,100 Descending Kansas City Center
02:31PM 39.6508 -93.8514 217° Southwest 227 261 9,100 -1,260 Descending Kansas City Center
02:32PM 39.5972 -93.8942 212° Southwest 233 268 8,100 -1,140 Descending Kansas City Center
02:33PM 39.5344 -93.9439 211° Southwest 236 272 6,800 -1,020 Descending Kansas City Center
02:34PM 39.4853 -93.9908 216° Southwest 231 266 6,000 -780 Descending Kansas City Center
02:35PM 39.4331 -94.0406 216° Southwest 211 243 5,300 -720 Descending Kansas City Center
02:36PM 39.3917 -94.0850 220° Southwest 203 234 4,600 -660 Descending Kansas City Center
02:37PM 39.3503 -94.1286 219° Southwest 201 231 4,000 -300 Descending Kansas City Center
02:38PM 39.3064 -94.1756 220° Southwest 186 214 4,000  Level Kansas City Center
02:39PM 39.2683 -94.2150 219° Southwest 183 211 4,000  Level Kansas City Center
02:40PM 39.2247 -94.2639 221° Southwest 186 214 4,000  Level Kansas City Center
02:41PM 39.1858 -94.3036 218° Southwest 185 213 4,000  Level Kansas City Center
02:42PM 39.1408 -94.3500 219° Southwest 184 212 4,000  Level Kansas City Center
02:43PM 39.1039 -94.3911 221° Southwest 184 212 4,000 -480 Level Kansas City Center
02:44PM 39.0628 -94.4419 224° Southwest 183 211 3,000 -540 Descending Kansas City Center
02:45PM 39.0450 -94.4842 242° Southwest 140 161 3,000  Level Kansas City Center
02:46PM 39.0331 -94.5325 252° West 129 148 3,000 60 Level Kansas City Center
02:47PM 39.0317 -94.5756 268° West 127 146 3,200 -420 Climbing Kansas City Center
02:48PM 39.0617 -94.6047 323° Northwest 124 143 2,200 -840 Descending Kansas City Center
02:49PM 39.0906 -94.6025 North 108 124 1,500 -540 Descending Kansas City Center
02:50PM 39.1244 -94.5958 North 110 127 1,200 -300 Descending Kansas City Center